sensor_id;sensor_type;location;lat;lon;timestamp;P1;durP1;ratioP1;P2;durP2;ratioP2
35644;SDS011;21764;52.042;6.830;2023-04-15T00:00:00;16.92;;;8.23;;
35644;SDS011;21764;52.042;6.830;2023-04-15T00:05:02;17.90;;;8.50;;
35644;SDS011;21764;52.042;6.830;2023-04-15T00:10:03;15.68;;;8.15;;
35644;SDS011;21764;52.042;6.830;2023-04-15T00:15:05;12.70;;;8.38;;
35644;SDS011;21764;52.042;6.830;2023-04-15T00:20:07;14.88;;;8.23;;
35644;SDS011;21764;52.042;6.830;2023-04-15T00:25:09;18.27;;;9.07;;
35644;SDS011;21764;52.042;6.830;2023-04-15T00:30:10;15.00;;;8.68;;
35644;SDS011;21764;52.042;6.830;2023-04-15T00:35:11;18.88;;;10.43;;
35644;SDS011;21764;52.042;6.830;2023-04-15T00:40:12;17.67;;;9.57;;
35644;SDS011;21764;52.042;6.830;2023-04-15T00:45:16;20.98;;;10.52;;
35644;SDS011;21764;52.042;6.830;2023-04-15T00:50:17;19.20;;;10.18;;
35644;SDS011;21764;52.042;6.830;2023-04-15T00:55:17;15.50;;;10.07;;
35644;SDS011;21764;52.042;6.830;2023-04-15T01:00:18;20.25;;;10.20;;
35644;SDS011;21764;52.042;6.830;2023-04-15T01:05:19;18.15;;;10.90;;
35644;SDS011;21764;52.042;6.830;2023-04-15T01:10:20;19.45;;;9.73;;
35644;SDS011;21764;52.042;6.830;2023-04-15T01:15:21;19.77;;;11.80;;
35644;SDS011;21764;52.042;6.830;2023-04-15T01:20:22;23.30;;;12.10;;
35644;SDS011;21764;52.042;6.830;2023-04-15T01:25:30;23.73;;;12.02;;
35644;SDS011;21764;52.042;6.830;2023-04-15T01:30:35;18.55;;;11.52;;
35644;SDS011;21764;52.042;6.830;2023-04-15T01:35:36;18.48;;;11.55;;
35644;SDS011;21764;52.042;6.830;2023-04-15T01:40:37;18.92;;;11.70;;
35644;SDS011;21764;52.042;6.830;2023-04-15T01:45:38;22.60;;;11.65;;
35644;SDS011;21764;52.042;6.830;2023-04-15T01:50:39;18.90;;;11.13;;
35644;SDS011;21764;52.042;6.830;2023-04-15T01:55:39;23.17;;;12.10;;
35644;SDS011;21764;52.042;6.830;2023-04-15T02:00:40;23.92;;;12.52;;
35644;SDS011;21764;52.042;6.830;2023-04-15T02:05:41;21.80;;;11.50;;
35644;SDS011;21764;52.042;6.830;2023-04-15T02:10:42;21.17;;;12.55;;
35644;SDS011;21764;52.042;6.830;2023-04-15T02:15:49;21.85;;;11.98;;
35644;SDS011;21764;52.042;6.830;2023-04-15T02:20:51;20.48;;;11.70;;
35644;SDS011;21764;52.042;6.830;2023-04-15T02:25:52;22.55;;;13.35;;
35644;SDS011;21764;52.042;6.830;2023-04-15T02:30:52;19.85;;;13.48;;
35644;SDS011;21764;52.042;6.830;2023-04-15T02:35:56;34.10;;;16.15;;
35644;SDS011;21764;52.042;6.830;2023-04-15T02:40:58;27.52;;;14.27;;
35644;SDS011;21764;52.042;6.830;2023-04-15T02:45:58;20.75;;;13.95;;
35644;SDS011;21764;52.042;6.830;2023-04-15T02:51:12;20.58;;;13.77;;
35644;SDS011;21764;52.042;6.830;2023-04-15T02:56:18;25.67;;;14.50;;
35644;SDS011;21764;52.042;6.830;2023-04-15T03:01:19;25.50;;;14.90;;
35644;SDS011;21764;52.042;6.830;2023-04-15T03:06:21;28.15;;;15.13;;
35644;SDS011;21764;52.042;6.830;2023-04-15T03:11:23;26.40;;;14.95;;
35644;SDS011;21764;52.042;6.830;2023-04-15T03:16:25;22.20;;;14.20;;
35644;SDS011;21764;52.042;6.830;2023-04-15T03:21:26;26.25;;;14.70;;
35644;SDS011;21764;52.042;6.830;2023-04-15T03:26:27;22.77;;;15.85;;
35644;SDS011;21764;52.042;6.830;2023-04-15T03:31:29;26.48;;;15.70;;
35644;SDS011;21764;52.042;6.830;2023-04-15T03:36:29;26.67;;;15.63;;
35644;SDS011;21764;52.042;6.830;2023-04-15T03:41:34;27.20;;;16.20;;
35644;SDS011;21764;52.042;6.830;2023-04-15T03:46:35;27.92;;;15.85;;
35644;SDS011;21764;52.042;6.830;2023-04-15T03:51:35;29.38;;;16.77;;
35644;SDS011;21764;52.042;6.830;2023-04-15T03:56:36;30.95;;;17.05;;
35644;SDS011;21764;52.042;6.830;2023-04-15T04:01:37;31.90;;;17.63;;
35644;SDS011;21764;52.042;6.830;2023-04-15T04:06:38;33.90;;;18.73;;
35644;SDS011;21764;52.042;6.830;2023-04-15T04:11:39;37.63;;;20.30;;
35644;SDS011;21764;52.042;6.830;2023-04-15T04:16:40;38.22;;;19.23;;
35644;SDS011;21764;52.042;6.830;2023-04-15T04:21:41;48.20;;;21.08;;
35644;SDS011;21764;52.042;6.830;2023-04-15T04:26:41;54.47;;;23.08;;
35644;SDS011;21764;52.042;6.830;2023-04-15T04:31:43;39.60;;;21.60;;
35644;SDS011;21764;52.042;6.830;2023-04-15T04:36:44;38.17;;;22.00;;
35644;SDS011;21764;52.042;6.830;2023-04-15T04:41:45;40.88;;;21.55;;
35644;SDS011;21764;52.042;6.830;2023-04-15T04:46:46;31.85;;;20.65;;
35644;SDS011;21764;52.042;6.830;2023-04-15T04:51:46;34.40;;;21.42;;
35644;SDS011;21764;52.042;6.830;2023-04-15T04:56:47;33.05;;;21.13;;
35644;SDS011;21764;52.042;6.830;2023-04-15T05:01:48;35.67;;;21.02;;
35644;SDS011;21764;52.042;6.830;2023-04-15T05:06:49;31.80;;;21.17;;
35644;SDS011;21764;52.042;6.830;2023-04-15T05:11:49;34.95;;;20.92;;
35644;SDS011;21764;52.042;6.830;2023-04-15T05:16:50;35.65;;;21.58;;
35644;SDS011;21764;52.042;6.830;2023-04-15T05:21:51;38.67;;;21.67;;
35644;SDS011;21764;52.042;6.830;2023-04-15T05:26:52;33.80;;;20.13;;
35644;SDS011;21764;52.042;6.830;2023-04-15T05:31:52;28.55;;;19.38;;
35644;SDS011;21764;52.042;6.830;2023-04-15T05:36:53;30.02;;;19.17;;
35644;SDS011;21764;52.042;6.830;2023-04-15T05:41:53;29.90;;;18.88;;
35644;SDS011;21764;52.042;6.830;2023-04-15T05:46:54;31.73;;;18.35;;
35644;SDS011;21764;52.042;6.830;2023-04-15T05:51:55;27.90;;;17.70;;
35644;SDS011;21764;52.042;6.830;2023-04-15T05:56:56;25.42;;;16.23;;
35644;SDS011;21764;52.042;6.830;2023-04-15T06:01:57;25.95;;;15.75;;
35644;SDS011;21764;52.042;6.830;2023-04-15T06:06:57;19.73;;;14.52;;
35644;SDS011;21764;52.042;6.830;2023-04-15T06:11:58;23.58;;;14.77;;
35644;SDS011;21764;52.042;6.830;2023-04-15T06:17:00;28.10;;;17.13;;
35644;SDS011;21764;52.042;6.830;2023-04-15T06:22:01;25.13;;;15.55;;
35644;SDS011;21764;52.042;6.830;2023-04-15T06:27:02;31.70;;;20.17;;
35644;SDS011;21764;52.042;6.830;2023-04-15T06:32:03;33.17;;;20.48;;
35644;SDS011;21764;52.042;6.830;2023-04-15T06:37:03;31.33;;;19.67;;
35644;SDS011;21764;52.042;6.830;2023-04-15T06:42:05;32.55;;;20.55;;
35644;SDS011;21764;52.042;6.830;2023-04-15T06:47:05;29.83;;;20.70;;
35644;SDS011;21764;52.042;6.830;2023-04-15T06:52:06;31.17;;;20.10;;
35644;SDS011;21764;52.042;6.830;2023-04-15T06:57:07;32.05;;;19.33;;
35644;SDS011;21764;52.042;6.830;2023-04-15T07:02:09;28.33;;;18.05;;
35644;SDS011;21764;52.042;6.830;2023-04-15T07:07:12;26.63;;;18.10;;
35644;SDS011;21764;52.042;6.830;2023-04-15T07:12:14;23.58;;;16.60;;
35644;SDS011;21764;52.042;6.830;2023-04-15T07:17:15;22.92;;;14.45;;
35644;SDS011;21764;52.042;6.830;2023-04-15T07:22:15;18.02;;;13.68;;
35644;SDS011;21764;52.042;6.830;2023-04-15T07:27:16;20.85;;;14.73;;
35644;SDS011;21764;52.042;6.830;2023-04-15T07:32:17;19.77;;;14.15;;
35644;SDS011;21764;52.042;6.830;2023-04-15T07:37:18;18.33;;;13.07;;
35644;SDS011;21764;52.042;6.830;2023-04-15T07:42:19;19.02;;;13.90;;
35644;SDS011;21764;52.042;6.830;2023-04-15T07:47:19;25.23;;;15.38;;
35644;SDS011;21764;52.042;6.830;2023-04-15T07:52:21;23.38;;;15.55;;
35644;SDS011;21764;52.042;6.830;2023-04-15T07:57:21;25.95;;;16.45;;
35644;SDS011;21764;52.042;6.830;2023-04-15T08:02:22;22.83;;;16.15;;
35644;SDS011;21764;52.042;6.830;2023-04-15T08:07:23;22.67;;;15.48;;
35644;SDS011;21764;52.042;6.830;2023-04-15T08:12:24;22.15;;;14.38;;
35644;SDS011;21764;52.042;6.830;2023-04-15T08:17:25;17.40;;;12.27;;
35644;SDS011;21764;52.042;6.830;2023-04-15T08:22:25;15.85;;;11.52;;
35644;SDS011;21764;52.042;6.830;2023-04-15T08:27:26;15.55;;;10.95;;
35644;SDS011;21764;52.042;6.830;2023-04-15T08:32:27;19.65;;;12.38;;
35644;SDS011;21764;52.042;6.830;2023-04-15T08:37:28;17.67;;;12.25;;
35644;SDS011;21764;52.042;6.830;2023-04-15T08:42:40;17.80;;;12.02;;
35644;SDS011;21764;52.042;6.830;2023-04-15T08:47:43;23.03;;;12.87;;
35644;SDS011;21764;52.042;6.830;2023-04-15T08:52:46;17.15;;;11.98;;
35644;SDS011;21764;52.042;6.830;2023-04-15T08:57:47;15.73;;;11.23;;
35644;SDS011;21764;52.042;6.830;2023-04-15T09:02:48;14.88;;;10.65;;
35644;SDS011;21764;52.042;6.830;2023-04-15T09:07:51;20.60;;;11.15;;
35644;SDS011;21764;52.042;6.830;2023-04-15T09:12:52;13.35;;;9.52;;
35644;SDS011;21764;52.042;6.830;2023-04-15T09:17:53;13.57;;;9.45;;
35644;SDS011;21764;52.042;6.830;2023-04-15T09:22:55;15.68;;;10.57;;
35644;SDS011;21764;52.042;6.830;2023-04-15T09:27:57;14.25;;;10.27;;
35644;SDS011;21764;52.042;6.830;2023-04-15T09:33:00;11.73;;;8.70;;
35644;SDS011;21764;52.042;6.830;2023-04-15T09:38:05;13.23;;;9.57;;
35644;SDS011;21764;52.042;6.830;2023-04-15T09:43:08;9.88;;;7.93;;
35644;SDS011;21764;52.042;6.830;2023-04-15T09:53:24;10.70;;;8.00;;
35644;SDS011;21764;52.042;6.830;2023-04-15T09:58:26;12.18;;;7.82;;
35644;SDS011;21764;52.042;6.830;2023-04-15T10:03:30;9.48;;;7.75;;
35644;SDS011;21764;52.042;6.830;2023-04-15T10:08:34;11.30;;;7.82;;
35644;SDS011;21764;52.042;6.830;2023-04-15T10:13:35;10.75;;;7.82;;
35644;SDS011;21764;52.042;6.830;2023-04-15T10:18:38;9.00;;;5.82;;
35644;SDS011;21764;52.042;6.830;2023-04-15T10:23:42;8.20;;;5.78;;
35644;SDS011;21764;52.042;6.830;2023-04-15T10:28:46;7.93;;;5.30;;
35644;SDS011;21764;52.042;6.830;2023-04-15T10:33:47;9.10;;;5.80;;
35644;SDS011;21764;52.042;6.830;2023-04-15T10:38:48;10.43;;;5.68;;
35644;SDS011;21764;52.042;6.830;2023-04-15T10:43:53;9.57;;;5.88;;
35644;SDS011;21764;52.042;6.830;2023-04-15T10:49:00;9.38;;;5.57;;
35644;SDS011;21764;52.042;6.830;2023-04-15T10:54:53;8.38;;;5.63;;
35644;SDS011;21764;52.042;6.830;2023-04-15T10:59:38;9.07;;;5.43;;
35644;SDS011;21764;52.042;6.830;2023-04-15T11:04:59;12.60;;;7.68;;
35644;SDS011;21764;52.042;6.830;2023-04-15T11:10:02;14.43;;;7.65;;
35644;SDS011;21764;52.042;6.830;2023-04-15T11:20:33;8.88;;;5.15;;
35644;SDS011;21764;52.042;6.830;2023-04-15T11:25:34;6.32;;;4.68;;
35644;SDS011;21764;52.042;6.830;2023-04-15T11:30:38;7.20;;;4.55;;
35644;SDS011;21764;52.042;6.830;2023-04-15T11:35:40;8.45;;;4.93;;
35644;SDS011;21764;52.042;6.830;2023-04-15T11:40:41;10.57;;;5.25;;
35644;SDS011;21764;52.042;6.830;2023-04-15T11:45:50;9.98;;;4.80;;
35644;SDS011;21764;52.042;6.830;2023-04-15T11:50:59;5.63;;;4.53;;
35644;SDS011;21764;52.042;6.830;2023-04-15T11:56:01;8.55;;;4.95;;
35644;SDS011;21764;52.042;6.830;2023-04-15T12:01:02;7.45;;;4.75;;
35644;SDS011;21764;52.042;6.830;2023-04-15T12:11:20;10.68;;;4.57;;
35644;SDS011;21764;52.042;6.830;2023-04-15T12:16:30;7.40;;;4.57;;
35644;SDS011;21764;52.042;6.830;2023-04-15T12:21:33;8.07;;;4.25;;
35644;SDS011;21764;52.042;6.830;2023-04-15T12:31:45;9.07;;;4.80;;
35644;SDS011;21764;52.042;6.830;2023-04-15T12:36:47;6.95;;;4.38;;
35644;SDS011;21764;52.042;6.830;2023-04-15T12:41:48;6.28;;;3.80;;
35644;SDS011;21764;52.042;6.830;2023-04-15T12:46:49;6.78;;;4.03;;
35644;SDS011;21764;52.042;6.830;2023-04-15T12:51:52;9.30;;;3.85;;
35644;SDS011;21764;52.042;6.830;2023-04-15T12:56:54;17.58;;;4.15;;
35644;SDS011;21764;52.042;6.830;2023-04-15T13:01:55;6.82;;;3.88;;
35644;SDS011;21764;52.042;6.830;2023-04-15T13:06:56;9.50;;;3.63;;
35644;SDS011;21764;52.042;6.830;2023-04-15T13:11:57;5.82;;;3.53;;
35644;SDS011;21764;52.042;6.830;2023-04-15T13:16:58;10.50;;;4.10;;
35644;SDS011;21764;52.042;6.830;2023-04-15T13:21:58;12.27;;;3.97;;
35644;SDS011;21764;52.042;6.830;2023-04-15T13:26:59;7.57;;;3.13;;
35644;SDS011;21764;52.042;6.830;2023-04-15T13:32:00;4.63;;;3.42;;
35644;SDS011;21764;52.042;6.830;2023-04-15T13:37:07;7.32;;;3.53;;
35644;SDS011;21764;52.042;6.830;2023-04-15T13:42:08;6.32;;;3.33;;
35644;SDS011;21764;52.042;6.830;2023-04-15T13:47:09;5.32;;;3.20;;
35644;SDS011;21764;52.042;6.830;2023-04-15T13:52:10;6.28;;;3.63;;
35644;SDS011;21764;52.042;6.830;2023-04-15T13:57:11;7.22;;;3.22;;
35644;SDS011;21764;52.042;6.830;2023-04-15T14:02:11;5.18;;;3.35;;
35644;SDS011;21764;52.042;6.830;2023-04-15T14:07:12;8.23;;;3.15;;
35644;SDS011;21764;52.042;6.830;2023-04-15T14:12:13;7.32;;;3.70;;
35644;SDS011;21764;52.042;6.830;2023-04-15T14:17:14;6.38;;;3.22;;
35644;SDS011;21764;52.042;6.830;2023-04-15T14:22:14;9.02;;;4.25;;
35644;SDS011;21764;52.042;6.830;2023-04-15T14:27:17;16.98;;;6.45;;
35644;SDS011;21764;52.042;6.830;2023-04-15T14:32:18;16.15;;;5.72;;
35644;SDS011;21764;52.042;6.830;2023-04-15T14:37:20;19.75;;;8.85;;
35644;SDS011;21764;52.042;6.830;2023-04-15T14:42:20;10.15;;;5.63;;
35644;SDS011;21764;52.042;6.830;2023-04-15T14:47:21;12.35;;;6.22;;
35644;SDS011;21764;52.042;6.830;2023-04-15T14:52:22;9.38;;;4.07;;
35644;SDS011;21764;52.042;6.830;2023-04-15T14:57:22;14.32;;;5.47;;
35644;SDS011;21764;52.042;6.830;2023-04-15T15:02:23;16.40;;;4.43;;
35644;SDS011;21764;52.042;6.830;2023-04-15T15:07:25;18.00;;;7.85;;
35644;SDS011;21764;52.042;6.830;2023-04-15T15:12:26;20.42;;;11.20;;
35644;SDS011;21764;52.042;6.830;2023-04-15T15:17:27;12.68;;;4.53;;
35644;SDS011;21764;52.042;6.830;2023-04-15T15:22:28;9.63;;;4.05;;
35644;SDS011;21764;52.042;6.830;2023-04-15T15:27:28;19.20;;;4.80;;
35644;SDS011;21764;52.042;6.830;2023-04-15T15:32:29;6.93;;;4.75;;
35644;SDS011;21764;52.042;6.830;2023-04-15T15:37:30;17.50;;;6.70;;
35644;SDS011;21764;52.042;6.830;2023-04-15T15:42:31;14.07;;;7.38;;
35644;SDS011;21764;52.042;6.830;2023-04-15T15:47:31;12.98;;;5.40;;
35644;SDS011;21764;52.042;6.830;2023-04-15T15:52:32;16.00;;;4.38;;
35644;SDS011;21764;52.042;6.830;2023-04-15T15:57:33;15.50;;;4.38;;
35644;SDS011;21764;52.042;6.830;2023-04-15T16:02:35;9.93;;;4.22;;
35644;SDS011;21764;52.042;6.830;2023-04-15T16:07:36;11.63;;;4.72;;
35644;SDS011;21764;52.042;6.830;2023-04-15T16:12:37;10.98;;;5.03;;
35644;SDS011;21764;52.042;6.830;2023-04-15T16:17:38;18.77;;;5.22;;
35644;SDS011;21764;52.042;6.830;2023-04-15T16:22:38;23.00;;;7.30;;
35644;SDS011;21764;52.042;6.830;2023-04-15T16:27:39;20.40;;;7.35;;
35644;SDS011;21764;52.042;6.830;2023-04-15T16:32:41;24.88;;;9.15;;
35644;SDS011;21764;52.042;6.830;2023-04-15T16:37:42;22.98;;;8.75;;
35644;SDS011;21764;52.042;6.830;2023-04-15T16:42:43;11.93;;;3.30;;
35644;SDS011;21764;52.042;6.830;2023-04-15T16:47:44;19.02;;;4.15;;
35644;SDS011;21764;52.042;6.830;2023-04-15T16:52:44;10.15;;;2.95;;
35644;SDS011;21764;52.042;6.830;2023-04-15T16:57:45;9.88;;;3.17;;
35644;SDS011;21764;52.042;6.830;2023-04-15T17:02:46;12.77;;;3.67;;
35644;SDS011;21764;52.042;6.830;2023-04-15T17:07:46;12.55;;;3.60;;
35644;SDS011;21764;52.042;6.830;2023-04-15T17:12:47;17.05;;;4.05;;
35644;SDS011;21764;52.042;6.830;2023-04-15T17:17:50;19.30;;;8.02;;
35644;SDS011;21764;52.042;6.830;2023-04-15T17:22:51;11.73;;;4.95;;
35644;SDS011;21764;52.042;6.830;2023-04-15T17:27:52;14.55;;;3.92;;
35644;SDS011;21764;52.042;6.830;2023-04-15T17:32:52;20.83;;;5.47;;
35644;SDS011;21764;52.042;6.830;2023-04-15T17:37:53;14.20;;;4.85;;
35644;SDS011;21764;52.042;6.830;2023-04-15T17:42:54;22.33;;;5.55;;
35644;SDS011;21764;52.042;6.830;2023-04-15T17:47:55;14.48;;;5.13;;
35644;SDS011;21764;52.042;6.830;2023-04-15T17:52:55;15.02;;;4.72;;
35644;SDS011;21764;52.042;6.830;2023-04-15T17:57:57;22.20;;;9.48;;
35644;SDS011;21764;52.042;6.830;2023-04-15T18:02:59;21.08;;;5.45;;
35644;SDS011;21764;52.042;6.830;2023-04-15T18:08:00;21.40;;;5.47;;
35644;SDS011;21764;52.042;6.830;2023-04-15T18:13:01;17.48;;;7.93;;
35644;SDS011;21764;52.042;6.830;2023-04-15T18:18:02;25.20;;;6.32;;
35644;SDS011;21764;52.042;6.830;2023-04-15T18:23:03;19.52;;;8.50;;
35644;SDS011;21764;52.042;6.830;2023-04-15T18:28:03;22.42;;;6.50;;
35644;SDS011;21764;52.042;6.830;2023-04-15T18:33:05;25.17;;;6.03;;
35644;SDS011;21764;52.042;6.830;2023-04-15T18:38:05;25.02;;;7.28;;
35644;SDS011;21764;52.042;6.830;2023-04-15T18:43:07;20.40;;;6.45;;
35644;SDS011;21764;52.042;6.830;2023-04-15T18:48:08;21.30;;;7.95;;
35644;SDS011;21764;52.042;6.830;2023-04-15T18:53:09;31.88;;;8.02;;
35644;SDS011;21764;52.042;6.830;2023-04-15T18:58:09;17.83;;;6.43;;
35644;SDS011;21764;52.042;6.830;2023-04-15T19:03:10;24.10;;;7.53;;
35644;SDS011;21764;52.042;6.830;2023-04-15T19:08:11;28.13;;;8.15;;
35644;SDS011;21764;52.042;6.830;2023-04-15T19:13:12;20.23;;;7.65;;
35644;SDS011;21764;52.042;6.830;2023-04-15T19:18:12;21.50;;;7.95;;
35644;SDS011;21764;52.042;6.830;2023-04-15T19:23:13;22.73;;;8.18;;
35644;SDS011;21764;52.042;6.830;2023-04-15T19:28:14;25.55;;;8.10;;
35644;SDS011;21764;52.042;6.830;2023-04-15T19:33:14;30.23;;;9.95;;
35644;SDS011;21764;52.042;6.830;2023-04-15T19:38:15;29.23;;;8.73;;
35644;SDS011;21764;52.042;6.830;2023-04-15T19:43:16;26.52;;;8.90;;
35644;SDS011;21764;52.042;6.830;2023-04-15T19:48:17;27.08;;;10.32;;
35644;SDS011;21764;52.042;6.830;2023-04-15T19:53:18;45.08;;;20.52;;
35644;SDS011;21764;52.042;6.830;2023-04-15T19:58:19;26.90;;;9.45;;
35644;SDS011;21764;52.042;6.830;2023-04-15T20:03:20;43.33;;;15.60;;
35644;SDS011;21764;52.042;6.830;2023-04-15T20:08:20;32.65;;;10.55;;
35644;SDS011;21764;52.042;6.830;2023-04-15T20:13:21;32.13;;;10.63;;
35644;SDS011;21764;52.042;6.830;2023-04-15T20:18:22;37.03;;;13.38;;
35644;SDS011;21764;52.042;6.830;2023-04-15T20:23:23;39.60;;;14.30;;
35644;SDS011;21764;52.042;6.830;2023-04-15T20:28:23;98.50;;;45.70;;
35644;SDS011;21764;52.042;6.830;2023-04-15T20:33:26;77.45;;;30.60;;
35644;SDS011;21764;52.042;6.830;2023-04-15T20:38:27;41.25;;;15.25;;
35644;SDS011;21764;52.042;6.830;2023-04-15T20:43:27;40.92;;;13.43;;
35644;SDS011;21764;52.042;6.830;2023-04-15T20:48:28;35.67;;;14.90;;
35644;SDS011;21764;52.042;6.830;2023-04-15T20:53:29;41.15;;;13.75;;
35644;SDS011;21764;52.042;6.830;2023-04-15T20:58:30;33.90;;;13.20;;
35644;SDS011;21764;52.042;6.830;2023-04-15T21:03:30;36.45;;;14.13;;
35644;SDS011;21764;52.042;6.830;2023-04-15T21:08:31;39.83;;;14.50;;
35644;SDS011;21764;52.042;6.830;2023-04-15T21:13:32;38.08;;;13.45;;
35644;SDS011;21764;52.042;6.830;2023-04-15T21:18:33;37.30;;;14.20;;
35644;SDS011;21764;52.042;6.830;2023-04-15T21:23:33;27.08;;;12.63;;
35644;SDS011;21764;52.042;6.830;2023-04-15T21:28:37;33.40;;;12.85;;
35644;SDS011;21764;52.042;6.830;2023-04-15T21:33:38;39.53;;;13.55;;
35644;SDS011;21764;52.042;6.830;2023-04-15T21:38:38;35.97;;;12.45;;
35644;SDS011;21764;52.042;6.830;2023-04-15T21:43:39;37.30;;;12.25;;
35644;SDS011;21764;52.042;6.830;2023-04-15T21:48:40;34.58;;;11.68;;
35644;SDS011;21764;52.042;6.830;2023-04-15T21:53:40;38.60;;;12.00;;
35644;SDS011;21764;52.042;6.830;2023-04-15T21:58:41;38.92;;;12.85;;
35644;SDS011;21764;52.042;6.830;2023-04-15T22:03:41;38.55;;;13.25;;
35644;SDS011;21764;52.042;6.830;2023-04-15T22:08:42;33.45;;;13.93;;
35644;SDS011;21764;52.042;6.830;2023-04-15T22:13:43;39.90;;;14.32;;
35644;SDS011;21764;52.042;6.830;2023-04-15T22:18:43;37.53;;;15.80;;
35644;SDS011;21764;52.042;6.830;2023-04-15T22:23:45;38.15;;;14.88;;
35644;SDS011;21764;52.042;6.830;2023-04-15T22:28:46;39.08;;;16.13;;
35644;SDS011;21764;52.042;6.830;2023-04-15T22:33:47;43.42;;;16.88;;
35644;SDS011;21764;52.042;6.830;2023-04-15T22:38:47;38.80;;;16.98;;
35644;SDS011;21764;52.042;6.830;2023-04-15T22:43:48;45.38;;;17.67;;
35644;SDS011;21764;52.042;6.830;2023-04-15T22:48:48;45.33;;;18.25;;
35644;SDS011;21764;52.042;6.830;2023-04-15T22:53:49;46.42;;;17.98;;
35644;SDS011;21764;52.042;6.830;2023-04-15T22:58:50;49.72;;;19.08;;
35644;SDS011;21764;52.042;6.830;2023-04-15T23:03:51;48.20;;;20.52;;
35644;SDS011;21764;52.042;6.830;2023-04-15T23:08:52;59.00;;;22.52;;
35644;SDS011;21764;52.042;6.830;2023-04-15T23:13:52;58.17;;;22.05;;
35644;SDS011;21764;52.042;6.830;2023-04-15T23:18:53;63.58;;;21.20;;
35644;SDS011;21764;52.042;6.830;2023-04-15T23:23:53;58.40;;;21.67;;
35644;SDS011;21764;52.042;6.830;2023-04-15T23:28:54;52.45;;;23.45;;
35644;SDS011;21764;52.042;6.830;2023-04-15T23:33:55;58.42;;;23.48;;
35644;SDS011;21764;52.042;6.830;2023-04-15T23:38:55;64.80;;;27.05;;
35644;SDS011;21764;52.042;6.830;2023-04-15T23:43:56;59.20;;;24.30;;
35644;SDS011;21764;52.042;6.830;2023-04-15T23:48:57;65.68;;;26.05;;
35644;SDS011;21764;52.042;6.830;2023-04-15T23:53:57;68.63;;;26.27;;
35644;SDS011;21764;52.042;6.830;2023-04-15T23:58:58;66.57;;;27.15;;
